Country
Station

 

Weather  for  Stampede Pass  -  United States    United States

  
-1 °C (30 °F)
    
 
 

Current METAR for Stampede Pass is :

KSMP 240056Z AUTO 28009G27KT 200V010 1/4SM SN FZFG VV002 M01/M03 A2995 RMK AO2 PK WND 24027/0050 SLP166 P0012 T10111028

 

This is a report for Stampede Pass - United States.
 
The report was made 27 minutes ago, at 00:56 UTC .
The wind was blowing at a speed of 4.6 meters per second (10.4 miles per hour) with gusts up to 13.9 meters per second (31.1 miles per hour) from west (280°), varying between south/southwest (200°) and north (010°).
 
The temperature was -1 °C (30 °F), with a dew-point at -3 °C (27 °F).
The temperature felt like -6 °C (21 °F).
 
The atmospheric pressure was 1014 hPa (29.95 inHg).
The relative humidity was 86.2%.
 
There were a vertical visibility of 61 meter (200 feet).
 
The overall visibility was 402 meter (1320 feet).
 
Currently moderate snow plus freezing fog.

 
 
 
 

Country :   A   B   C   D   E   F   G   H   I   J   K   L   M   N   O   P   Q   R   S   T   U   V   W   Y   Z

 

Site Info  |  Disclaimer  |  Credits  |  Privacy
Contact us  |  Add to favorites
© 2013-2020 METARs - All rights reserved